Time;durP1;ratioP1;P1;durP2;ratioP2;P2;SDS_P1;SDS_P2;PMS_P1;PMS_P2;Temp;Humidity;BMP_temperature;BMP_pressure;BME280_temperature;BME280_humidity;BME280_pressure;Samples;Min_cycle;Max_cycle;Signal;HPM_P1;HPM_P2
2021/04/15 00:00:35;;;;;;;;;;;23.40;42.40;;;;;;1569995;74;701;-65
2021/04/15 00:02:36;;;;;;;;;;;23.40;42.40;;;;;;1577001;73;1122;-66
2021/04/15 00:04:38;;;;;;;;;;;23.40;42.50;;;;;;1574467;74;804;-66
2021/04/15 00:06:40;;;;;;;;;;;23.40;42.50;;;;;;1573369;74;826;-69
2021/04/15 00:08:42;;;;;;;;;;;23.40;42.40;;;;;;1572967;73;783;-65
2021/04/15 00:10:45;;;;;;;;;;;23.40;42.40;;;;;;1577188;73;781;-62
2021/04/15 00:12:47;;;;;;;;;;;23.50;42.50;;;;;;1575296;73;1123;-67
2021/04/15 00:14:49;;;;;;;;;;;23.50;42.40;;;;;;1571966;73;1936;-66
2021/04/15 00:16:51;;;;;;;;;;;23.40;42.30;;;;;;1575908;74;696;-66
2021/04/15 00:18:53;;;;;;;;;;;23.50;42.40;;;;;;1574287;73;785;-66
2021/04/15 00:20:55;;;;;;;;;;;23.40;42.30;;;;;;1574075;73;642;-65
2021/04/15 00:22:57;;;;;;;;;;;23.40;42.30;;;;;;1571941;73;1166;-66
2021/04/15 00:25:00;;;;;;;;;;;23.50;42.40;;;;;;1575080;73;779;-66
2021/04/15 00:27:02;;;;;;;;;;;23.50;42.30;;;;;;1570612;73;792;-66
2021/04/15 00:29:04;;;;;;;;;;;23.40;42.20;;;;;;1574435;73;791;-65
2021/04/15 00:31:06;;;;;;;;;;;23.40;42.20;;;;;;1569492;73;718;-66
2021/04/15 00:33:10;;;;;;;;;;;23.40;42.20;;;;;;1568543;73;1108;-67
2021/04/15 00:35:12;;;;;;;;;;;23.40;42.30;;;;;;1570943;74;1928;-64
2021/04/15 00:37:14;;;;;;;;;;;23.40;42.20;;;;;;1578527;73;768;-65
2021/04/15 00:39:16;;;;;;;;;;;23.50;42.30;;;;;;1573507;74;781;-64
2021/04/15 00:41:18;;;;;;;;;;;23.50;42.30;;;;;;1575324;74;828;-66
2021/04/15 00:43:20;;;;;;;;;;;23.50;42.30;;;;;;1571163;74;1124;-65
2021/04/15 00:45:24;;;;;;;;;;;23.50;42.30;;;;;;1571793;73;722;-64
2021/04/15 00:47:27;;;;;;;;;;;23.50;42.30;;;;;;1566169;73;1656;-64
2021/04/15 00:49:30;;;;;;;;;;;23.50;42.40;;;;;;1570366;74;802;-65
2021/04/15 00:51:33;;;;;;;;;;;23.50;42.60;;;;;;1575040;73;784;-65
2021/04/15 00:53:37;;;;;;;;;;;23.50;42.50;;;;;;1579254;73;1155;-65
2021/04/15 00:55:39;;;;;;;;;;;23.50;42.50;;;;;;1577916;73;1940;-65
2021/04/15 00:57:41;;;;;;;;;;;23.50;42.50;;;;;;1578265;73;857;-66
2021/04/15 00:59:43;;;;;;;;;;;23.50;42.40;;;;;;1520320;76;861;-65
2021/04/15 01:01:45;;;;;;;;;;;23.50;42.40;;;;;;1531263;77;740;-65
2021/04/15 01:03:47;;;;;;;;;;;23.50;42.40;;;;;;1523494;76;1062;-65
2021/04/15 01:05:49;;;;;;;;;;;23.50;42.60;;;;;;1544126;75;790;-65
2021/04/15 01:07:51;;;;;;;;;;;23.50;42.60;;;;;;1544581;76;738;-65
2021/04/15 01:09:53;;;;;;;;;;;23.40;42.50;;;;;;1543468;75;728;-65
2021/04/15 01:12:02;;;;;;;;;;;23.40;42.70;;;;;;1544475;75;1130;-65
2021/04/15 01:14:06;;;;;;;;;;;23.40;42.70;;;;;;1522488;76;1941;-66
2021/04/15 01:16:24;;;;;;;;;;;23.50;42.80;;;;;;1539089;75;757;-64
2021/04/15 01:18:31;;;;;;;;;;;23.40;42.80;;;;;;1544777;75;1892;-64
2021/04/15 01:20:51;;;;;;;;;;;23.40;42.80;;;;;;1548722;76;785;-65
2021/04/15 01:22:53;;;;;;;;;;;23.50;42.90;;;;;;1544069;76;1176;-66
2021/04/15 01:24:56;;;;;;;;;;;23.50;42.90;;;;;;1522593;76;859;-64
2021/04/15 01:27:18;;;;;;;;;;;23.50;42.80;;;;;;1520525;76;1862;-64
2021/04/15 01:29:22;;;;;;;;;;;23.50;42.60;;;;;;1533162;77;1958;-65
2021/04/15 01:31:25;;;;;;;;;;;23.50;42.60;;;;;;1528816;76;786;-64
2021/04/15 01:33:29;;;;;;;;;;;23.40;42.60;;;;;;1532467;76;1838;-67
2021/04/15 01:35:32;;;;;;;;;;;23.50;42.60;;;;;;1537272;75;1947;-65
2021/04/15 01:37:39;;;;;;;;;;;23.50;42.80;;;;;;1522746;76;1035;-65
2021/04/15 01:39:45;;;;;;;;;;;23.50;42.80;;;;;;1533479;76;751;-65
2021/04/15 01:41:51;;;;;;;;;;;23.40;42.70;;;;;;1541663;75;728;-63
2021/04/15 01:43:54;;;;;;;;;;;23.40;42.60;;;;;;1532342;77;830;-64
2021/04/15 01:45:56;;;;;;;;;;;23.50;42.70;;;;;;1536748;76;716;-65
2021/04/15 01:48:05;;;;;;;;;;;23.40;42.60;;;;;;1500778;78;775;-66
2021/04/15 01:50:11;;;;;;;;;;;23.40;42.50;;;;;;1521748;76;721;-65
2021/04/15 01:52:14;;;;;;;;;;;23.40;42.60;;;;;;1520227;76;1140;-64
2021/04/15 01:54:26;;;;;;;;;;;23.50;42.80;;;;;;1538603;76;1933;-63
2021/04/15 01:56:32;;;;;;;;;;;23.50;42.80;;;;;;1513734;76;785;-65
2021/04/15 01:58:38;;;;;;;;;;;23.40;42.60;;;;;;1533863;76;2284;-63
2021/04/15 02:00:41;;;;;;;;;;;23.40;42.60;;;;;;1532206;76;979;-64
2021/04/15 02:02:44;;;;;;;;;;;23.50;42.80;;;;;;1538023;76;1139;-66
2021/04/15 02:04:51;;;;;;;;;;;23.50;42.70;;;;;;1530991;76;1862;-65
2021/04/15 02:06:54;;;;;;;;;;;23.50;42.60;;;;;;1530957;76;934;-65
2021/04/15 02:09:00;;;;;;;;;;;23.50;42.70;;;;;;1524132;76;1819;-65
2021/04/15 02:11:13;;;;;;;;;;;23.40;42.60;;;;;;1538776;76;1182;-65
2021/04/15 02:13:15;;;;;;;;;;;23.40;42.50;;;;;;1517932;76;1788;-65
2021/04/15 02:15:18;;;;;;;;;;;23.40;42.60;;;;;;1545845;76;1935;-65
2021/04/15 02:17:20;;;;;;;;;;;23.40;42.40;;;;;;1538574;76;793;-65
2021/04/15 02:19:23;;;;;;;;;;;23.50;42.60;;;;;;1547877;76;857;-65
2021/04/15 02:21:33;;;;;;;;;;;23.50;42.70;;;;;;1539107;76;1900;-64
2021/04/15 02:23:36;;;;;;;;;;;23.40;42.40;;;;;;1538992;76;1170;-68
2021/04/15 02:25:42;;;;;;;;;;;23.40;42.50;;;;;;1541194;76;785;-66
2021/04/15 02:27:52;;;;;;;;;;;23.40;42.50;;;;;;1539131;76;771;-64
2021/04/15 02:29:54;;;;;;;;;;;23.50;42.60;;;;;;1542694;76;1195;-64
2021/04/15 02:32:00;;;;;;;;;;;23.50;42.60;;;;;;1549946;76;1142;-66
2021/04/15 02:34:04;;;;;;;;;;;23.40;42.60;;;;;;1539027;76;854;-65
2021/04/15 02:36:06;;;;;;;;;;;23.40;42.80;;;;;;1543231;76;1944;-65
2021/04/15 02:38:08;;;;;;;;;;;23.40;42.90;;;;;;1540346;76;820;-66
2021/04/15 02:40:11;;;;;;;;;;;23.30;42.90;;;;;;1538641;76;698;-65
2021/04/15 02:42:15;;;;;;;;;;;23.40;43.00;;;;;;1551675;76;2223;-65
2021/04/15 02:44:23;;;;;;;;;;;23.20;43.10;;;;;;1544598;76;811;-63
2021/04/15 02:46:26;;;;;;;;;;;23.20;43.20;;;;;;1539460;75;1082;-65
2021/04/15 02:48:29;;;;;;;;;;;23.20;43.30;;;;;;1535961;76;1693;-64
2021/04/15 02:50:31;;;;;;;;;;;23.20;43.40;;;;;;1544416;75;868;-65
2021/04/15 02:52:34;;;;;;;;;;;23.20;43.50;;;;;;1552074;76;1118;-64
2021/04/15 02:54:37;;;;;;;;;;;23.20;43.60;;;;;;1549370;76;1935;-66
2021/04/15 02:56:43;;;;;;;;;;;23.20;43.60;;;;;;1539240;76;794;-65
2021/04/15 02:58:46;;;;;;;;;;;23.20;43.70;;;;;;1541458;76;878;-64
2021/04/15 03:00:49;;;;;;;;;;;23.20;43.70;;;;;;1542116;76;845;-64
2021/04/15 03:02:52;;;;;;;;;;;23.10;43.90;;;;;;1548972;76;1142;-65
2021/04/15 03:04:55;;;;;;;;;;;23.10;43.90;;;;;;1549128;76;1791;-64
2021/04/15 03:06:57;;;;;;;;;;;23.10;44.10;;;;;;1540704;76;835;-65
2021/04/15 03:09:01;;;;;;;;;;;23.10;44.10;;;;;;1546325;76;686;-65
2021/04/15 03:11:04;;;;;;;;;;;23.10;44.00;;;;;;1543400;76;860;-64
2021/04/15 03:13:17;;;;;;;;;;;23.10;44.30;;;;;;1544201;76;1202;-64
2021/04/15 03:15:20;;;;;;;;;;;23.10;44.30;;;;;;1538803;75;1941;-64
2021/04/15 03:17:22;;;;;;;;;;;23.00;44.30;;;;;;1546378;76;721;-63
2021/04/15 03:19:25;;;;;;;;;;;23.00;44.30;;;;;;1547383;76;724;-64
2021/04/15 03:21:29;;;;;;;;;;;23.00;44.50;;;;;;1539395;76;1797;-66
2021/04/15 03:23:32;;;;;;;;;;;23.00;44.50;;;;;;1544282;76;1166;-64
2021/04/15 03:25:34;;;;;;;;;;;23.00;44.50;;;;;;1539696;76;2078;-64
2021/04/15 03:27:38;;;;;;;;;;;23.00;44.50;;;;;;1542025;76;779;-65
2021/04/15 03:29:44;;;;;;;;;;;23.00;44.50;;;;;;1544732;76;777;-63
2021/04/15 03:31:47;;;;;;;;;;;23.00;44.50;;;;;;1541934;76;813;-66
2021/04/15 03:33:54;;;;;;;;;;;23.00;44.60;;;;;;1538991;76;1076;-63
2021/04/15 03:36:00;;;;;;;;;;;23.00;44.50;;;;;;1543904;76;1931;-64
2021/04/15 03:38:06;;;;;;;;;;;22.90;44.50;;;;;;1547789;76;764;-62
2021/04/15 03:40:08;;;;;;;;;;;22.90;44.70;;;;;;1540219;76;684;-62
2021/04/15 03:42:14;;;;;;;;;;;22.90;44.70;;;;;;1550010;76;1116;-63
2021/04/15 03:44:18;;;;;;;;;;;22.90;44.80;;;;;;1546272;76;1875;-62
2021/04/15 03:46:21;;;;;;;;;;;22.90;44.90;;;;;;1544012;76;731;-63
2021/04/15 03:48:25;;;;;;;;;;;22.90;44.80;;;;;;1539284;76;2092;-63
2021/04/15 03:50:27;;;;;;;;;;;22.90;44.70;;;;;;1545996;76;785;-63
2021/04/15 03:52:33;;;;;;;;;;;22.90;44.70;;;;;;1542257;76;1117;-63
2021/04/15 03:54:37;;;;;;;;;;;22.90;44.70;;;;;;1551269;76;778;-68
2021/04/15 03:56:43;;;;;;;;;;;22.90;44.70;;;;;;1541810;76;1905;-62
2021/04/15 03:58:46;;;;;;;;;;;22.90;44.70;;;;;;1547377;76;767;-66
2021/04/15 04:00:49;;;;;;;;;;;22.90;44.70;;;;;;1543443;76;825;-64
2021/04/15 04:02:56;;;;;;;;;;;22.90;44.60;;;;;;1541159;76;1143;-64
2021/04/15 04:05:02;;;;;;;;;;;22.90;44.60;;;;;;1542531;76;739;-65
2021/04/15 04:07:05;;;;;;;;;;;22.90;44.70;;;;;;1549394;76;1784;-63
2021/04/15 04:09:09;;;;;;;;;;;22.90;44.60;;;;;;1542564;76;775;-64
2021/04/15 04:11:12;;;;;;;;;;;22.90;44.60;;;;;;1551251;76;1904;-65
2021/04/15 04:13:24;;;;;;;;;;;22.90;44.50;;;;;;1559360;71;217622;-59
2021/04/15 04:15:28;;;;;;;;;;;22.90;44.50;;;;;;1585452;73;1950;-61
2021/04/15 04:17:40;;;;;;;;;;;22.90;44.40;;;;;;1574024;74;780;-59
2021/04/15 04:19:48;;;;;;;;;;;22.90;44.50;;;;;;1579428;74;1822;-59
2021/04/15 04:22:04;;;;;;;;;;;23.00;44.40;;;;;;1578098;74;774;-60
2021/04/15 04:24:08;;;;;;;;;;;22.90;44.40;;;;;;1572361;74;1956;-59
2021/04/15 04:26:20;;;;;;;;;;;23.00;44.20;;;;;;1570367;74;729;-59
2021/04/15 04:28:23;;;;;;;;;;;22.90;44.30;;;;;;1567533;74;732;-59
2021/04/15 04:30:27;;;;;;;;;;;23.00;44.20;;;;;;1578457;74;1171;-59
2021/04/15 04:32:28;;;;;;;;;;;23.00;44.50;;;;;;1572456;74;774;-60
2021/04/15 04:34:30;;;;;;;;;;;23.00;44.60;;;;;;1574571;74;749;-60
2021/04/15 04:36:32;;;;;;;;;;;23.00;44.40;;;;;;1576876;74;1945;-59
2021/04/15 04:38:34;;;;;;;;;;;22.90;44.70;;;;;;1567211;74;1134;-60
2021/04/15 04:40:40;;;;;;;;;;;22.90;44.80;;;;;;1579689;74;755;-62
2021/04/15 04:42:52;;;;;;;;;;;22.90;44.70;;;;;;1574128;74;802;-59
2021/04/15 04:44:58;;;;;;;;;;;22.90;44.70;;;;;;1570536;74;1059;-59
2021/04/15 04:47:07;;;;;;;;;;;22.90;44.70;;;;;;1573286;74;776;-59
2021/04/15 04:49:16;;;;;;;;;;;22.90;44.70;;;;;;1572991;74;1817;-58
2021/04/15 04:51:19;;;;;;;;;;;22.80;44.70;;;;;;1574193;74;984;-61
2021/04/15 04:53:34;;;;;;;;;;;22.90;44.80;;;;;;1577547;74;927;-60
2021/04/15 04:55:45;;;;;;;;;;;22.90;44.60;;;;;;1569628;74;1923;-60
2021/04/15 04:57:47;;;;;;;;;;;22.90;44.70;;;;;;1585464;74;870;-61
2021/04/15 04:59:49;;;;;;;;;;;22.80;44.60;;;;;;1582935;74;1116;-60
2021/04/15 05:01:51;;;;;;;;;;;22.80;44.60;;;;;;1577653;74;803;-60
2021/04/15 05:04:00;;;;;;;;;;;22.80;44.60;;;;;;1581166;74;807;-60
2021/04/15 05:06:02;;;;;;;;;;;22.80;44.60;;;;;;1587924;74;784;-59
2021/04/15 05:08:05;;;;;;;;;;;22.90;44.60;;;;;;1587052;74;760;-60
2021/04/15 05:10:07;;;;;;;;;;;22.90;44.60;;;;;;1571686;74;1104;-58
2021/04/15 05:12:09;;;;;;;;;;;22.90;44.50;;;;;;1577922;74;805;-59
2021/04/15 05:14:11;;;;;;;;;;;22.90;44.40;;;;;;1584447;74;771;-59
2021/04/15 05:16:13;;;;;;;;;;;22.90;44.50;;;;;;1574909;74;1919;-60
2021/04/15 05:18:16;;;;;;;;;;;22.90;44.60;;;;;;1576901;74;704;-59
2021/04/15 05:20:19;;;;;;;;;;;22.90;44.70;;;;;;1581665;74;1138;-59
2021/04/15 05:22:23;;;;;;;;;;;22.90;44.60;;;;;;1574034;74;724;-58
2021/04/15 05:24:45;;;;;;;;;;;22.90;44.60;;;;;;1570549;74;690;-58
2021/04/15 05:26:47;;;;;;;;;;;23.00;44.60;;;;;;1567846;74;757;-60
2021/04/15 05:28:49;;;;;;;;;;;23.00;44.70;;;;;;1574506;74;1115;-59
2021/04/15 05:30:51;;;;;;;;;;;23.00;44.80;;;;;;1571551;74;748;-60
2021/04/15 05:32:53;;;;;;;;;;;23.00;44.50;;;;;;1572141;74;810;-60
2021/04/15 05:34:55;;;;;;;;;;;23.00;44.30;;;;;;1574176;74;758;-60
2021/04/15 05:36:58;;;;;;;;;;;23.10;44.20;;;;;;1573994;74;1940;-60
2021/04/15 05:39:01;;;;;;;;;;;23.10;43.90;;;;;;1573478;74;1135;-61
2021/04/15 05:41:03;;;;;;;;;;;23.20;43.80;;;;;;1571667;74;743;-60
2021/04/15 05:43:06;;;;;;;;;;;23.20;43.50;;;;;;1570539;74;764;-60
2021/04/15 05:45:10;;;;;;;;;;;23.20;43.20;;;;;;1578156;74;772;-60
2021/04/15 05:47:16;;;;;;;;;;;23.20;43.00;;;;;;1557320;74;1051;-60
2021/04/15 05:49:19;;;;;;;;;;;23.20;42.80;;;;;;1570922;74;1851;-59
2021/04/15 05:51:29;;;;;;;;;;;23.20;42.60;;;;;;1583329;74;1046;-60
2021/04/15 05:53:32;;;;;;;;;;;23.20;42.40;;;;;;1584665;74;704;-61
2021/04/15 05:55:35;;;;;;;;;;;23.50;43.80;;;;;;1579713;74;1937;-62
2021/04/15 05:57:38;;;;;;;;;;;23.70;43.30;;;;;;1580660;74;710;-58
2021/04/15 05:59:50;;;;;;;;;;;23.90;42.10;;;;;;1575754;74;1115;-60
2021/04/15 06:01:53;;;;;;;;;;;24.00;41.10;;;;;;1586162;74;846;-59
2021/04/15 06:04:09;;;;;;;;;;;24.00;40.70;;;;;;1581305;74;790;-58
2021/04/15 06:06:12;;;;;;;;;;;24.10;40.40;;;;;;1582767;74;1939;-59
2021/04/15 06:08:14;;;;;;;;;;;24.20;40.40;;;;;;1574864;74;732;-59
2021/04/15 06:10:17;;;;;;;;;;;24.30;40.50;;;;;;1574547;74;1101;-58
2021/04/15 06:12:23;;;;;;;;;;;24.30;40.50;;;;;;1584181;74;732;-58
2021/04/15 06:14:36;;;;;;;;;;;24.30;40.30;;;;;;1589228;74;910;-60
2021/04/15 06:16:39;;;;;;;;;;;24.30;40.00;;;;;;1579284;75;1931;-59
2021/04/15 06:18:46;;;;;;;;;;;24.20;39.20;;;;;;1569251;74;1894;-57
2021/04/15 06:20:48;;;;;;;;;;;24.30;39.40;;;;;;1580492;74;820;-58
2021/04/15 06:22:51;;;;;;;;;;;24.30;39.10;;;;;;1576934;74;942;-59
2021/04/15 06:24:55;;;;;;;;;;;24.20;39.00;;;;;;1578446;74;652;-58
2021/04/15 06:26:58;;;;;;;;;;;24.30;38.90;;;;;;1577900;74;765;-59
2021/04/15 06:29:04;;;;;;;;;;;24.30;38.80;;;;;;1582399;74;1183;-60
2021/04/15 06:31:07;;;;;;;;;;;24.20;38.80;;;;;;1583802;74;693;-59
2021/04/15 06:33:11;;;;;;;;;;;24.20;38.90;;;;;;1578429;74;1962;-59
2021/04/15 06:35:14;;;;;;;;;;;24.30;39.20;;;;;;1580067;74;727;-59
2021/04/15 06:37:21;;;;;;;;;;;24.20;38.90;;;;;;1571058;74;1955;-60
2021/04/15 06:39:30;;;;;;;;;;;24.20;38.90;;;;;;1588437;74;1751;-59
2021/04/15 06:41:37;;;;;;;;;;;24.10;38.90;;;;;;1575138;74;998;-59
2021/04/15 06:43:43;;;;;;;;;;;24.20;38.90;;;;;;1566125;74;777;-59
2021/04/15 06:45:47;;;;;;;;;;;24.20;38.80;;;;;;1584660;74;791;-59
2021/04/15 06:47:50;;;;;;;;;;;24.20;38.40;;;;;;1574208;74;1500;-60
2021/04/15 06:49:56;;;;;;;;;;;24.30;38.60;;;;;;1579192;74;1084;-57
2021/04/15 06:52:03;;;;;;;;;;;24.30;38.60;;;;;;1586715;74;815;-57
2021/04/15 06:54:13;;;;;;;;;;;24.30;38.60;;;;;;1575298;74;853;-59
2021/04/15 06:56:22;;;;;;;;;;;24.30;38.50;;;;;;1588446;74;1949;-59
2021/04/15 06:58:26;;;;;;;;;;;24.30;38.50;;;;;;1580579;74;948;-57
2021/04/15 07:00:35;;;;;;;;;;;24.30;38.40;;;;;;1578749;74;767;-59
2021/04/15 07:02:43;;;;;;;;;;;24.30;38.40;;;;;;1575799;74;773;-58
2021/04/15 07:04:46;;;;;;;;;;;24.30;38.40;;;;;;1570498;74;1749;-57
2021/04/15 07:07:01;;;;;;;;;;;24.20;38.40;;;;;;1581419;74;1792;-58
2021/04/15 07:09:07;;;;;;;;;;;24.20;38.40;;;;;;1572349;74;1144;-58
2021/04/15 07:11:11;;;;;;;;;;;24.30;38.50;;;;;;1573135;74;758;-58
2021/04/15 07:13:24;;;;;;;;;;;24.20;38.40;;;;;;1573633;74;992;-59
2021/04/15 07:15:30;;;;;;;;;;;24.20;38.40;;;;;;1573250;74;1659;-58
2021/04/15 07:17:39;;;;;;;;;;;24.20;38.40;;;;;;1572164;74;1943;-58
2021/04/15 07:19:43;;;;;;;;;;;24.20;38.40;;;;;;1574944;74;1146;-58
2021/04/15 07:21:46;;;;;;;;;;;24.20;38.40;;;;;;1566328;74;771;-59
2021/04/15 07:23:52;;;;;;;;;;;24.20;38.50;;;;;;1568368;74;789;-57
2021/04/15 07:26:02;;;;;;;;;;;24.20;38.50;;;;;;1565824;74;1461;-57
2021/04/15 07:28:12;;;;;;;;;;;24.20;38.50;;;;;;1579601;74;783;-58
2021/04/15 07:30:32;;;;;;;;;;;24.20;38.50;;;;;;1569694;74;1986;-59
2021/04/15 07:32:35;;;;;;;;;;;24.10;38.60;;;;;;1572958;74;800;-59
2021/04/15 07:34:41;;;;;;;;;;;24.10;38.60;;;;;;1576195;74;727;-57
2021/04/15 07:36:51;;;;;;;;;;;24.00;38.60;;;;;;1572929;74;1942;-59
2021/04/15 07:39:07;;;;;;;;;;;24.10;38.80;;;;;;1574036;74;1141;-59
2021/04/15 07:41:22;;;;;;;;;;;24.10;39.00;;;;;;1574038;74;1783;-58
2021/04/15 07:43:42;;;;;;;;;;;24.00;38.90;;;;;;1565293;74;795;-59
2021/04/15 07:45:55;;;;;;;;;;;24.00;39.10;;;;;;1574718;74;807;-59
2021/04/15 07:48:15;;;;;;;;;;;24.00;39.20;;;;;;1574803;74;1961;-60
2021/04/15 07:50:21;;;;;;;;;;;24.10;39.50;;;;;;1579602;74;1089;-61
2021/04/15 07:52:34;;;;;;;;;;;24.00;40.30;;;;;;1581725;74;767;-59
2021/04/15 07:54:43;;;;;;;;;;;23.90;42.00;;;;;;1574640;74;872;-60
2021/04/15 07:56:53;;;;;;;;;;;23.90;41.20;;;;;;1577556;73;1930;-60
2021/04/15 07:58:56;;;;;;;;;;;24.00;41.40;;;;;;1573815;74;1125;-60
2021/04/15 08:01:16;;;;;;;;;;;24.00;42.50;;;;;;1568420;74;804;-61
2021/04/15 08:03:25;;;;;;;;;;;24.00;41.80;;;;;;1563571;74;754;-58
2021/04/15 08:05:42;;;;;;;;;;;24.00;41.80;;;;;;1574084;74;717;-59
2021/04/15 08:08:02;;;;;;;;;;;24.00;41.80;;;;;;1575235;74;796;-60
2021/04/15 08:10:08;;;;;;;;;;;24.00;41.80;;;;;;1576276;74;1149;-59
2021/04/15 08:12:24;;;;;;;;;;;24.10;42.00;;;;;;1578093;74;756;-58
2021/04/15 08:14:27;;;;;;;;;;;24.10;42.00;;;;;;1574035;74;795;-61
2021/04/15 08:16:34;;;;;;;;;;;24.10;42.00;;;;;;1567444;75;1955;-58
2021/04/15 08:18:37;;;;;;;;;;;24.10;42.10;;;;;;1571833;75;1120;-58
2021/04/15 08:20:41;;;;;;;;;;;24.10;42.00;;;;;;1567841;74;890;-58
2021/04/15 08:22:53;;;;;;;;;;;24.10;42.00;;;;;;1572050;74;714;-59
2021/04/15 08:25:11;;;;;;;;;;;24.00;41.80;;;;;;1572173;74;1928;-58
2021/04/15 08:27:32;;;;;;;;;;;24.20;42.00;;;;;;1576610;74;743;-59
2021/04/15 08:29:41;;;;;;;;;;;24.10;42.00;;;;;;1581442;74;1147;-59
2021/04/15 08:31:54;;;;;;;;;;;24.20;41.90;;;;;;1576063;74;1684;-58
2021/04/15 08:34:09;;;;;;;;;;;24.20;42.00;;;;;;1575914;74;1146;-58
2021/04/15 08:36:29;;;;;;;;;;;24.10;42.00;;;;;;1584328;74;897;-60
2021/04/15 08:38:35;;;;;;;;;;;24.20;41.90;;;;;;1573058;74;1132;-58
2021/04/15 08:40:42;;;;;;;;;;;24.20;41.90;;;;;;1580443;74;718;-60
2021/04/15 08:42:48;;;;;;;;;;;24.20;42.00;;;;;;1572562;74;723;-60
2021/04/15 08:45:10;;;;;;;;;;;24.20;42.00;;;;;;1571946;74;722;-59
2021/04/15 08:47:13;;;;;;;;;;;24.20;41.90;;;;;;1585425;74;1608;-60
2021/04/15 08:49:33;;;;;;;;;;;24.20;41.80;;;;;;1581417;74;1147;-58
2021/04/15 08:51:43;;;;;;;;;;;24.20;41.80;;;;;;1579426;74;777;-58
2021/04/15 08:53:58;;;;;;;;;;;24.30;41.60;;;;;;1573957;74;726;-59
2021/04/15 08:56:01;;;;;;;;;;;24.30;41.40;;;;;;1579398;74;756;-59
2021/04/15 08:58:14;;;;;;;;;;;24.40;41.20;;;;;;1571862;74;1931;-60
2021/04/15 09:00:20;;;;;;;;;;;24.40;40.90;;;;;;1577829;73;1102;-59
2021/04/15 09:02:23;;;;;;;;;;;24.40;40.60;;;;;;1568643;74;1820;-59
2021/04/15 09:04:33;;;;;;;;;;;24.40;40.40;;;;;;1576807;74;748;-60
2021/04/15 09:06:39;;;;;;;;;;;24.40;40.30;;;;;;1567904;74;1976;-58
2021/04/15 09:08:43;;;;;;;;;;;24.50;40.20;;;;;;1570921;74;1117;-58
2021/04/15 09:10:52;;;;;;;;;;;24.40;40.00;;;;;;1566330;74;1983;-59
2021/04/15 09:13:11;;;;;;;;;;;24.50;39.90;;;;;;1573769;74;1627;-58
2021/04/15 09:15:17;;;;;;;;;;;24.50;39.80;;;;;;1572334;74;807;-58
2021/04/15 09:17:35;;;;;;;;;;;24.50;39.70;;;;;;1568294;74;1942;-58
2021/04/15 09:19:38;;;;;;;;;;;24.40;39.60;;;;;;1569145;74;1182;-60
2021/04/15 09:21:58;;;;;;;;;;;24.40;39.50;;;;;;1579564;74;1928;-59
2021/04/15 09:24:02;;;;;;;;;;;24.40;39.50;;;;;;1577100;74;754;-59
2021/04/15 09:26:11;;;;;;;;;;;24.30;39.50;;;;;;1574096;74;790;-60
2021/04/15 09:28:31;;;;;;;;;;;24.20;39.50;;;;;;1576679;74;635;-61
2021/04/15 09:30:34;;;;;;;;;;;24.20;39.50;;;;;;1571496;74;830;-60
2021/04/15 09:32:42;;;;;;;;;;;24.20;39.60;;;;;;1577955;74;718;-59
2021/04/15 09:34:48;;;;;;;;;;;24.20;39.60;;;;;;1581667;74;763;-58
2021/04/15 09:37:01;;;;;;;;;;;24.20;39.60;;;;;;1585932;74;1923;-60
2021/04/15 09:39:07;;;;;;;;;;;24.20;39.60;;;;;;1521352;76;1245;-58
2021/04/15 09:41:22;;;;;;;;;;;24.20;39.60;;;;;;1573619;74;2075;-58
2021/04/15 09:43:44;;;;;;;;;;;24.10;39.70;;;;;;1573157;74;738;-59
2021/04/15 09:45:48;;;;;;;;;;;24.10;39.70;;;;;;1582852;74;698;-61
2021/04/15 09:47:54;;;;;;;;;;;24.00;39.60;;;;;;1570612;74;800;-59
2021/04/15 09:50:00;;;;;;;;;;;24.00;39.70;;;;;;1573858;74;1145;-59
2021/04/15 09:52:19;;;;;;;;;;;24.00;39.70;;;;;;1580757;74;683;-58
2021/04/15 09:54:26;;;;;;;;;;;24.00;39.70;;;;;;1570670;74;975;-58
2021/04/15 09:56:41;;;;;;;;;;;24.00;39.70;;;;;;1571372;74;910;-58
2021/04/15 09:59:02;;;;;;;;;;;24.10;39.70;;;;;;1576522;74;1919;-58
2021/04/15 10:01:09;;;;;;;;;;;24.10;39.70;;;;;;1568790;74;819;-59
2021/04/15 10:03:28;;;;;;;;;;;24.00;39.60;;;;;;1575012;74;769;-58
2021/04/15 10:05:31;;;;;;;;;;;24.00;39.70;;;;;;1576178;74;764;-58
2021/04/15 10:07:35;;;;;;;;;;;24.10;39.70;;;;;;1572032;74;774;-60
2021/04/15 10:09:38;;;;;;;;;;;24.10;39.70;;;;;;1567825;74;1168;-58
2021/04/15 10:11:44;;;;;;;;;;;24.10;39.70;;;;;;1574008;73;707;-58
2021/04/15 10:14:04;;;;;;;;;;;24.10;39.70;;;;;;1547750;72;215571;-64
2021/04/15 10:16:07;;;;;;;;;;;24.10;39.60;;;;;;1530563;75;693;-63
2021/04/15 10:18:11;;;;;;;;;;;24.10;39.50;;;;;;1542599;75;1899;-64
2021/04/15 10:20:26;;;;;;;;;;;24.20;39.50;;;;;;1542668;75;684;-65
2021/04/15 10:22:43;;;;;;;;;;;24.10;39.60;;;;;;1531426;74;1927;-65
2021/04/15 10:24:47;;;;;;;;;;;24.20;39.50;;;;;;1520565;76;903;-64
2021/04/15 10:27:02;;;;;;;;;;;24.20;39.50;;;;;;1523568;76;724;-64
2021/04/15 10:29:18;;;;;;;;;;;24.10;39.50;;;;;;1523171;76;724;-64
2021/04/15 10:31:27;;;;;;;;;;;24.00;39.40;;;;;;1517276;76;1840;-64
2021/04/15 10:33:40;;;;;;;;;;;24.00;39.40;;;;;;1520837;76;1888;-65
2021/04/15 10:36:01;;;;;;;;;;;24.10;39.40;;;;;;1520682;76;1738;-64
2021/04/15 10:38:05;;;;;;;;;;;24.10;39.50;;;;;;1520454;76;1930;-65
2021/04/15 10:40:25;;;;;;;;;;;24.00;39.40;;;;;;1520169;76;809;-64
2021/04/15 10:42:46;;;;;;;;;;;24.00;39.30;;;;;;1518810;76;808;-64
2021/04/15 10:45:05;;;;;;;;;;;24.10;39.40;;;;;;1528380;76;923;-65
2021/04/15 10:47:14;;;;;;;;;;;24.00;39.20;;;;;;1520214;76;1652;-64
2021/04/15 10:49:21;;;;;;;;;;;24.00;39.20;;;;;;1518503;76;742;-65
2021/04/15 10:51:36;;;;;;;;;;;24.00;39.20;;;;;;1523704;76;789;-65
2021/04/15 10:53:45;;;;;;;;;;;24.00;39.20;;;;;;1516082;76;1141;-64
2021/04/15 10:55:48;;;;;;;;;;;24.00;39.20;;;;;;1526754;76;754;-64
2021/04/15 10:57:50;;;;;;;;;;;24.00;39.20;;;;;;1515641;76;1920;-64
2021/04/15 10:59:52;;;;;;;;;;;23.90;39.20;;;;;;1530418;76;671;-64
2021/04/15 11:01:55;;;;;;;;;;;23.90;39.20;;;;;;1525065;76;813;-65
2021/04/15 11:03:58;;;;;;;;;;;23.90;39.20;;;;;;1515081;76;1877;-64
2021/04/15 11:06:00;;;;;;;;;;;23.90;39.20;;;;;;1519551;76;793;-64
2021/04/15 11:08:06;;;;;;;;;;;23.90;39.10;;;;;;1528761;76;748;-63
2021/04/15 11:10:10;;;;;;;;;;;23.90;39.10;;;;;;1518768;76;713;-64
2021/04/15 11:12:16;;;;;;;;;;;23.90;39.10;;;;;;1508431;76;711;-64
2021/04/15 11:14:18;;;;;;;;;;;24.00;39.00;;;;;;1507074;76;1128;-65
2021/04/15 11:16:21;;;;;;;;;;;23.90;39.00;;;;;;1505387;76;762;-64
2021/04/15 11:18:27;;;;;;;;;;;23.90;38.90;;;;;;1515558;76;1950;-60
2021/04/15 11:20:30;;;;;;;;;;;24.00;38.90;;;;;;1527982;76;766;-63
2021/04/15 11:22:32;;;;;;;;;;;23.90;38.90;;;;;;1542017;76;727;-65
2021/04/15 11:24:34;;;;;;;;;;;23.90;38.90;;;;;;1530091;76;1161;-65
2021/04/15 11:26:43;;;;;;;;;;;23.90;39.00;;;;;;1518480;76;796;-63
2021/04/15 11:28:46;;;;;;;;;;;23.90;38.90;;;;;;1519810;76;1819;-64
2021/04/15 11:30:52;;;;;;;;;;;23.90;38.90;;;;;;1509543;76;804;-63
2021/04/15 11:32:54;;;;;;;;;;;23.90;39.00;;;;;;1514101;76;1170;-64
2021/04/15 11:34:57;;;;;;;;;;;23.90;39.10;;;;;;1512528;76;765;-64
2021/04/15 11:37:01;;;;;;;;;;;23.80;39.10;;;;;;1519307;76;1832;-64
2021/04/15 11:39:07;;;;;;;;;;;23.70;39.10;;;;;;1521242;76;1948;-62
2021/04/15 11:41:13;;;;;;;;;;;23.80;39.20;;;;;;1521500;76;758;-63
2021/04/15 11:43:26;;;;;;;;;;;23.80;39.30;;;;;;1515201;76;1858;-63
2021/04/15 11:45:29;;;;;;;;;;;23.70;39.50;;;;;;1524711;76;780;-64
2021/04/15 11:47:31;;;;;;;;;;;23.80;39.40;;;;;;1509422;76;1937;-64
2021/04/15 11:49:37;;;;;;;;;;;23.70;39.20;;;;;;1515955;76;854;-64
2021/04/15 11:51:43;;;;;;;;;;;23.70;39.20;;;;;;1521565;76;807;-64
2021/04/15 11:53:51;;;;;;;;;;;23.60;39.20;;;;;;1486409;77;1153;-64
2021/04/15 11:55:55;;;;;;;;;;;23.60;39.10;;;;;;1521238;76;797;-64
2021/04/15 11:58:08;;;;;;;;;;;23.60;39.10;;;;;;1514760;76;1944;-64
2021/04/15 12:00:21;;;;;;;;;;;23.70;39.20;;;;;;1533172;76;713;-64
2021/04/15 12:02:30;;;;;;;;;;;23.60;39.20;;;;;;1523003;76;748;-64
2021/04/15 12:04:32;;;;;;;;;;;23.50;37.40;;;;;;1520533;76;1123;-64
2021/04/15 12:06:41;;;;;;;;;;;23.50;32.70;;;;;;1511445;76;757;-64
2021/04/15 12:08:45;;;;;;;;;;;23.50;33.50;;;;;;1517227;76;792;-66
2021/04/15 12:11:04;;;;;;;;;;;23.50;34.90;;;;;;1521775;76;1677;-63
2021/04/15 12:13:07;;;;;;;;;;;23.50;35.20;;;;;;1514925;76;1155;-63
2021/04/15 12:15:10;;;;;;;;;;;23.50;35.40;;;;;;1516532;76;805;-63
2021/04/15 12:17:33;;;;;;;;;;;23.50;35.30;;;;;;1516168;77;807;-63
2021/04/15 12:19:39;;;;;;;;;;;23.60;36.00;;;;;;1515643;76;709;-63
2021/04/15 12:21:58;;;;;;;;;;;23.60;35.70;;;;;;1508387;77;1706;-60
2021/04/15 12:24:02;;;;;;;;;;;23.60;35.80;;;;;;1521797;76;1473;-62
2021/04/15 12:26:05;;;;;;;;;;;23.50;36.00;;;;;;1511855;76;721;-68
2021/04/15 12:28:18;;;;;;;;;;;23.50;36.60;;;;;;1516690;76;700;-67
2021/04/15 12:30:22;;;;;;;;;;;23.50;37.30;;;;;;1520958;76;739;-69
2021/04/15 12:32:32;;;;;;;;;;;23.50;37.60;;;;;;1513505;76;812;-67
2021/04/15 12:34:39;;;;;;;;;;;23.60;37.80;;;;;;1515555;76;1168;-68